Aviation Digital Data Service (ADDS)

Output produced by METARs form (0152 UTC 08 February 2016)
found at http://aviationweather.gov/adds/metars/
 
KSSI 072334Z 0800/0824 29006KT P6SM SKC 
     FM081400 26008KT P6SM SKC 
     FM081600 25012G20KT P6SM FEW040 SCT250